createdAt,value
2023-07-18T00:01:09.636Z,21.47
2023-07-18T00:03:36.989Z,21.57
2023-07-18T00:06:04.801Z,21.57
2023-07-18T00:08:31.876Z,21.58
2023-07-18T00:10:58.937Z,21.56
2023-07-18T00:13:25.886Z,21.54
2023-07-18T00:15:53.629Z,21.52
2023-07-18T00:18:22.757Z,21.43
2023-07-18T00:20:49.789Z,21.48
2023-07-18T00:23:16.856Z,21.48
2023-07-18T00:25:44.188Z,21.40
2023-07-18T00:28:11.317Z,21.48
2023-07-18T00:30:38.317Z,21.48
2023-07-18T00:33:05.297Z,21.48
2023-07-18T00:35:32.825Z,21.47
2023-07-18T00:38:01.548Z,21.42
2023-07-18T00:40:28.660Z,21.46
2023-07-18T00:42:55.609Z,21.47
2023-07-18T00:45:22.588Z,21.48
2023-07-18T00:47:50.193Z,21.49
2023-07-18T00:50:18.752Z,21.48
2023-07-18T00:52:48.935Z,21.50
2023-07-18T00:55:16.460Z,21.45
2023-07-18T00:57:46.120Z,21.48
2023-07-18T01:00:14.803Z,21.40
2023-07-18T01:02:45.118Z,21.45
2023-07-18T01:05:20.605Z,21.43
2023-07-18T01:07:48.624Z,21.40
2023-07-18T01:10:24.317Z,21.41
2023-07-18T01:12:57.121Z,21.31
2023-07-18T01:15:26.395Z,21.35
2023-07-18T01:17:53.917Z,21.33
2023-07-18T01:20:28.261Z,21.31
2023-07-18T01:23:01.985Z,21.26
2023-07-18T01:25:29.474Z,21.30
2023-07-18T01:27:58.088Z,21.29
2023-07-18T01:30:26.735Z,21.28
2023-07-18T01:32:55.207Z,21.29
2023-07-18T01:35:27.290Z,21.27
2023-07-18T01:37:57.560Z,21.28
2023-07-18T01:40:25.044Z,21.28
2023-07-18T01:42:54.055Z,21.27
2023-07-18T01:45:25.603Z,21.26
2023-07-18T01:47:53.827Z,21.24
2023-07-18T01:50:21.159Z,21.23
2023-07-18T01:52:49.113Z,21.23
2023-07-18T01:55:17.356Z,21.22
2023-07-18T01:57:46.955Z,21.20
2023-07-18T02:00:21.240Z,21.15
2023-07-18T02:02:51.372Z,21.09
2023-07-18T02:05:21.436Z,21.01
2023-07-18T02:07:49.588Z,20.98
2023-07-18T02:10:20.774Z,20.91
2023-07-18T02:12:50.284Z,20.92
2023-07-18T02:15:18.364Z,20.90
2023-07-18T02:17:46.758Z,20.84
2023-07-18T02:20:15.560Z,20.82
2023-07-18T02:22:45.894Z,20.77
2023-07-18T02:25:13.665Z,20.77
2023-07-18T02:27:42.022Z,20.76
2023-07-18T02:30:11.658Z,20.74
2023-07-18T02:32:43.338Z,20.72
2023-07-18T02:35:19.818Z,20.65
2023-07-18T02:37:47.985Z,20.60
2023-07-18T02:40:19.000Z,20.65
2023-07-18T02:42:47.584Z,20.63
2023-07-18T02:45:15.308Z,20.62
2023-07-18T02:47:42.961Z,20.62
2023-07-18T02:50:10.292Z,20.58
2023-07-18T02:52:37.504Z,20.66
2023-07-18T02:55:05.160Z,20.69
2023-07-18T02:57:33.073Z,20.73
2023-07-18T03:00:00.981Z,20.75
2023-07-18T03:02:34.659Z,20.80
2023-07-18T03:05:02.359Z,20.83
2023-07-18T03:07:32.198Z,20.87
2023-07-18T03:09:59.124Z,20.92
2023-07-18T03:12:26.157Z,20.95
2023-07-18T03:14:53.133Z,21.02
2023-07-18T03:17:20.109Z,21.08
2023-07-18T03:19:47.049Z,21.15
2023-07-18T03:22:16.021Z,21.24
2023-07-18T03:24:43.058Z,21.28
2023-07-18T03:27:10.087Z,21.37
2023-07-18T03:29:37.138Z,21.46
2023-07-18T03:32:04.402Z,21.49
2023-07-18T03:34:32.497Z,21.56
2023-07-18T03:37:00.412Z,21.63
2023-07-18T03:39:27.333Z,21.77
2023-07-18T03:41:54.346Z,21.89
2023-07-18T03:44:21.594Z,22.02
2023-07-18T03:46:48.527Z,22.20
2023-07-18T03:49:15.514Z,22.50
2023-07-18T03:51:42.597Z,22.75
2023-07-18T03:54:10.676Z,22.94
2023-07-18T03:56:38.186Z,23.37
2023-07-18T03:59:05.241Z,23.72
2023-07-18T04:01:32.444Z,23.91
2023-07-18T04:03:59.699Z,24.39
2023-07-18T04:06:26.810Z,24.68
2023-07-18T04:08:55.248Z,25.11
2023-07-18T04:11:22.631Z,25.45
2023-07-18T04:13:49.902Z,25.53
2023-07-18T04:16:17.057Z,25.84
2023-07-18T04:18:44.591Z,25.73
2023-07-18T04:21:11.605Z,25.87
2023-07-18T04:23:38.507Z,26.24
2023-07-18T04:26:05.546Z,26.66
2023-07-18T04:28:35.179Z,27.01
2023-07-18T04:31:03.205Z,27.53
2023-07-18T04:33:38.844Z,27.88
2023-07-18T04:36:07.622Z,28.41
2023-07-18T04:38:35.638Z,28.82
2023-07-18T04:41:04.242Z,29.29
2023-07-18T04:43:31.613Z,29.88
2023-07-18T04:45:58.676Z,30.38
2023-07-18T04:48:25.988Z,30.78
2023-07-18T04:51:01.187Z,30.94
2023-07-18T04:53:29.722Z,31.30
2023-07-18T04:55:57.106Z,31.42
2023-07-18T04:58:28.906Z,31.29
2023-07-18T05:00:57.597Z,30.86
2023-07-18T05:03:26.360Z,30.16
2023-07-18T05:05:54.492Z,29.74
2023-07-18T05:08:21.704Z,29.35
2023-07-18T05:10:49.277Z,28.74
2023-07-18T05:13:16.647Z,28.47
2023-07-18T05:15:44.208Z,28.25
2023-07-18T05:18:11.299Z,27.95
2023-07-18T05:20:38.351Z,27.65
2023-07-18T05:23:05.993Z,27.17
2023-07-18T05:25:32.968Z,26.66
2023-07-18T05:27:59.982Z,26.72
2023-07-18T05:30:28.325Z,26.63
2023-07-18T05:32:55.809Z,26.36
2023-07-18T05:35:23.085Z,26.29
2023-07-18T05:37:50.097Z,26.27
2023-07-18T05:40:21.774Z,26.91
2023-07-18T05:42:49.695Z,27.52
2023-07-18T05:45:16.810Z,28.74
2023-07-18T05:47:44.146Z,29.27
2023-07-18T05:50:11.897Z,29.63
2023-07-18T05:52:39.667Z,30.47
2023-07-18T05:55:07.721Z,30.83
2023-07-18T05:57:35.022Z,32.08
2023-07-18T06:00:02.585Z,32.35
2023-07-18T06:02:39.867Z,32.41
2023-07-18T06:05:08.175Z,33.36
2023-07-18T06:07:35.603Z,34.05
2023-07-18T06:10:03.274Z,34.56
2023-07-18T06:12:32.447Z,35.25
2023-07-18T06:14:59.772Z,35.48
2023-07-18T06:17:27.631Z,35.89
2023-07-18T06:19:54.624Z,35.67
2023-07-18T06:22:22.286Z,36.45
2023-07-18T06:24:49.436Z,35.58
2023-07-18T06:27:16.528Z,36.61
2023-07-18T06:29:45.435Z,36.28
2023-07-18T06:32:12.386Z,37.03
2023-07-18T06:34:42.352Z,36.03
2023-07-18T06:37:11.622Z,36.60
2023-07-18T06:39:39.694Z,36.18
2023-07-18T06:42:10.104Z,35.42
2023-07-18T06:44:37.564Z,35.22
2023-07-18T06:47:05.352Z,35.20
2023-07-18T06:49:32.523Z,35.55
2023-07-18T06:51:59.455Z,36.28
2023-07-18T06:54:26.485Z,36.26
2023-07-18T06:56:53.509Z,37.34
2023-07-18T06:59:20.461Z,38.08
2023-07-18T07:01:47.421Z,38.18
2023-07-18T07:04:14.502Z,38.07
2023-07-18T07:06:43.416Z,38.75
2023-07-18T07:09:14.192Z,39.32
2023-07-18T07:11:42.951Z,39.47
2023-07-18T07:14:10.269Z,39.12
2023-07-18T07:16:37.318Z,39.88
2023-07-18T07:19:06.824Z,40.44
2023-07-18T07:21:34.013Z,40.96
2023-07-18T07:24:01.999Z,41.24
2023-07-18T07:26:30.113Z,40.50
2023-07-18T07:28:57.534Z,41.25
2023-07-18T07:31:25.302Z,40.23
2023-07-18T07:33:53.252Z,40.33
2023-07-18T07:36:22.173Z,40.67
2023-07-18T07:38:49.697Z,39.29
2023-07-18T07:41:17.624Z,39.10
2023-07-18T07:43:44.965Z,40.49
2023-07-18T07:46:12.022Z,40.61
2023-07-18T07:48:40.328Z,41.61
2023-07-18T07:51:07.690Z,42.27
2023-07-18T07:53:34.776Z,41.78
2023-07-18T07:56:01.923Z,41.32
2023-07-18T07:58:28.987Z,40.48
2023-07-18T08:00:56.100Z,39.16
2023-07-18T08:03:23.222Z,38.24
2023-07-18T08:05:55.008Z,37.77
2023-07-18T08:08:22.100Z,38.37
2023-07-18T08:10:49.107Z,36.44
2023-07-18T08:13:18.432Z,34.98
2023-07-18T08:15:45.708Z,35.12
2023-07-18T08:18:12.872Z,35.47
2023-07-18T08:20:39.909Z,35.43
2023-07-18T08:23:07.025Z,34.71
2023-07-18T08:25:34.179Z,34.44
2023-07-18T08:28:01.297Z,34.22
2023-07-18T08:30:28.277Z,34.02
2023-07-18T08:32:55.368Z,33.71
2023-07-18T08:35:22.415Z,33.60
2023-07-18T08:37:49.365Z,33.28
2023-07-18T08:40:16.706Z,32.93
2023-07-18T08:42:43.949Z,32.32
2023-07-18T08:45:15.077Z,31.71
2023-07-18T08:47:45.054Z,32.02
2023-07-18T08:50:12.732Z,31.91
2023-07-18T08:52:40.959Z,31.86
2023-07-18T08:55:10.086Z,31.82
2023-07-18T08:57:38.710Z,31.73
2023-07-18T09:00:06.315Z,31.78
2023-07-18T09:02:35.185Z,31.71
2023-07-18T09:05:02.207Z,31.56
2023-07-18T09:07:37.365Z,31.39
2023-07-18T09:10:05.347Z,31.59
2023-07-18T09:12:36.612Z,31.56
2023-07-18T09:15:03.907Z,31.77
2023-07-18T09:17:33.597Z,31.98
2023-07-18T09:20:09.348Z,32.03
2023-07-18T09:22:36.642Z,33.73
2023-07-18T09:25:04.058Z,33.29
2023-07-18T09:27:31.256Z,33.10
2023-07-18T09:29:58.346Z,33.03
2023-07-18T09:32:26.145Z,32.93
2023-07-18T09:34:59.899Z,32.63
2023-07-18T09:37:28.966Z,33.05
2023-07-18T09:39:56.094Z,32.72
2023-07-18T09:42:25.133Z,33.72
2023-07-18T09:44:53.566Z,33.89
2023-07-18T09:47:21.730Z,33.66
2023-07-18T09:49:49.212Z,33.48
2023-07-18T09:52:17.389Z,34.35
2023-07-18T09:54:45.225Z,34.36
2023-07-18T09:57:13.885Z,35.74
2023-07-18T09:59:41.238Z,35.84
2023-07-18T10:02:11.889Z,35.41
2023-07-18T10:04:39.998Z,35.41
2023-07-18T10:07:11.555Z,35.55
2023-07-18T10:09:39.590Z,35.14
2023-07-18T10:12:07.370Z,35.14
2023-07-18T10:15:01.480Z,35.36
2023-07-18T10:17:35.452Z,35.74
2023-07-18T10:20:08.042Z,35.67
2023-07-18T10:22:35.150Z,35.75
2023-07-18T10:25:09.258Z,35.39
2023-07-18T10:27:47.047Z,35.22
2023-07-18T10:30:17.132Z,34.88
2023-07-18T10:32:57.118Z,34.29
2023-07-18T10:35:27.530Z,33.89
2023-07-18T10:37:57.174Z,33.67
2023-07-18T10:40:41.171Z,32.60
2023-07-18T10:43:17.030Z,32.51
2023-07-18T10:45:44.802Z,32.22
2023-07-18T10:48:16.100Z,32.13
2023-07-18T10:50:44.800Z,32.14
2023-07-18T10:53:20.059Z,32.15
2023-07-18T10:55:49.127Z,31.90
2023-07-18T10:58:18.516Z,31.53
2023-07-18T11:00:46.073Z,31.22
2023-07-18T11:03:23.747Z,30.86
2023-07-18T11:05:52.057Z,30.43
2023-07-18T11:08:26.520Z,30.25
2023-07-18T11:10:55.555Z,29.59
2023-07-18T11:13:37.118Z,29.28
2023-07-18T11:16:08.460Z,29.04
2023-07-18T11:18:36.903Z,28.22
2023-07-18T11:21:05.208Z,25.16
2023-07-18T11:23:34.183Z,23.44
2023-07-18T11:26:10.324Z,22.58
2023-07-18T11:28:37.426Z,22.27
2023-07-18T11:31:04.618Z,22.04
2023-07-18T11:33:34.385Z,22.04
2023-07-18T11:36:02.022Z,21.96
2023-07-18T11:38:30.188Z,21.81
2023-07-18T11:40:58.895Z,21.72
2023-07-18T11:43:31.300Z,21.64
2023-07-18T11:45:58.316Z,21.49
2023-07-18T11:48:26.502Z,21.17
2023-07-18T11:50:54.400Z,21.26
2023-07-18T11:53:28.642Z,21.02
2023-07-18T11:55:56.884Z,20.90
2023-07-18T11:58:25.718Z,20.85
2023-07-18T12:00:57.954Z,20.85
2023-07-18T12:03:25.075Z,20.86
2023-07-18T12:05:52.228Z,20.84
2023-07-18T12:08:20.303Z,20.80
2023-07-18T12:10:56.369Z,20.76
2023-07-18T12:13:34.070Z,20.76
2023-07-18T12:16:01.355Z,20.75
2023-07-18T12:18:29.536Z,20.74
2023-07-18T12:20:56.574Z,20.81
2023-07-18T12:23:23.543Z,20.83
2023-07-18T12:25:51.122Z,20.85
2023-07-18T12:28:18.237Z,20.86
2023-07-18T12:30:45.547Z,20.87
2023-07-18T12:33:13.458Z,20.88
2023-07-18T12:35:40.494Z,20.89
2023-07-18T12:38:07.837Z,20.91
2023-07-18T12:40:34.915Z,20.91
2023-07-18T12:43:01.922Z,20.88
2023-07-18T12:45:30.118Z,20.63
2023-07-18T12:47:57.266Z,20.27
2023-07-18T12:50:27.002Z,20.41
2023-07-18T12:52:54.867Z,20.24
2023-07-18T12:55:21.943Z,20.28
2023-07-18T12:57:49.606Z,20.38
2023-07-18T13:00:17.103Z,20.39
2023-07-18T13:02:47.939Z,20.54
2023-07-18T13:05:15.138Z,20.81
2023-07-18T13:07:42.321Z,20.96
2023-07-18T13:10:11.362Z,21.14
2023-07-18T13:12:39.831Z,21.37
2023-07-18T13:15:07.298Z,21.74
2023-07-18T13:17:34.409Z,22.06
2023-07-18T13:20:01.453Z,22.25
2023-07-18T13:22:31.834Z,22.36
2023-07-18T13:24:58.832Z,22.32
2023-07-18T13:27:25.767Z,22.33
2023-07-18T13:29:53.061Z,22.29
2023-07-18T13:32:20.072Z,22.23
2023-07-18T13:34:47.195Z,22.23
2023-07-18T13:37:16.041Z,22.24
2023-07-18T13:39:43.089Z,22.36
2023-07-18T13:42:10.000Z,22.42
2023-07-18T13:44:37.048Z,22.45
2023-07-18T13:47:04.771Z,22.51
2023-07-18T13:52:03.374Z,22.59
2023-07-18T13:54:30.452Z,22.71
2023-07-18T13:56:57.413Z,22.74
2023-07-18T13:59:24.338Z,22.77
2023-07-18T14:01:51.353Z,22.82
2023-07-18T14:04:20.989Z,22.88
2023-07-18T14:06:48.111Z,22.88
2023-07-18T14:09:15.743Z,22.85
2023-07-18T14:11:42.703Z,22.93
2023-07-18T14:14:11.862Z,23.04
2023-07-18T14:16:38.860Z,23.06
2023-07-18T14:19:05.958Z,23.07
2023-07-18T14:21:32.976Z,23.05
2023-07-18T14:24:02.451Z,23.05
2023-07-18T14:26:29.643Z,23.06
2023-07-18T14:28:56.668Z,23.06
2023-07-18T14:31:23.763Z,23.01
2023-07-18T14:34:04.721Z,22.93
2023-07-18T14:36:33.663Z,22.87
2023-07-18T14:39:00.887Z,22.83
2023-07-18T14:41:27.872Z,22.74
2023-07-18T14:43:54.860Z,22.69
2023-07-18T14:46:23.519Z,22.59
2023-07-18T14:48:51.042Z,22.55
2023-07-18T14:51:18.006Z,22.51
2023-07-18T14:53:47.119Z,22.46
2023-07-18T14:56:14.193Z,22.42
2023-07-18T14:58:41.248Z,22.40
2023-07-18T15:01:08.266Z,22.36
2023-07-18T15:03:36.881Z,22.32
2023-07-18T15:06:07.279Z,22.31
2023-07-18T15:08:35.119Z,22.19
2023-07-18T15:11:02.546Z,22.23
2023-07-18T15:13:29.574Z,22.25
2023-07-18T15:15:56.589Z,22.25
2023-07-18T15:18:23.572Z,22.23
2023-07-18T15:20:50.646Z,22.15
2023-07-18T15:23:17.682Z,22.16
2023-07-18T15:25:45.084Z,22.15
2023-07-18T15:28:14.760Z,22.12
2023-07-18T15:30:42.711Z,22.09
2023-07-18T15:33:25.574Z,22.03
2023-07-18T15:35:54.108Z,21.99
2023-07-18T15:38:21.291Z,21.93
2023-07-18T15:40:48.903Z,21.86
2023-07-18T15:43:15.831Z,21.81
2023-07-18T15:45:47.080Z,21.75
2023-07-18T15:48:15.526Z,21.54
2023-07-18T15:50:42.722Z,21.56
2023-07-18T15:53:09.748Z,21.59
2023-07-18T15:55:36.834Z,21.58
2023-07-18T15:58:03.745Z,21.56
2023-07-18T16:00:35.354Z,21.45
2023-07-18T16:03:02.428Z,21.38
2023-07-18T16:05:29.460Z,21.27
2023-07-18T16:07:56.456Z,21.29
2023-07-18T16:10:23.648Z,21.32
2023-07-18T16:12:52.267Z,21.28
2023-07-18T16:15:20.631Z,21.30
2023-07-18T16:17:47.677Z,21.24
2023-07-18T16:20:14.725Z,21.23
2023-07-18T16:22:53.962Z,21.00
2023-07-18T16:25:21.100Z,21.04
2023-07-18T16:27:49.906Z,21.00
2023-07-18T16:30:19.285Z,21.04
2023-07-18T16:32:46.521Z,21.00
2023-07-18T16:35:13.842Z,20.89
2023-07-18T16:37:43.493Z,20.90
2023-07-18T16:40:11.464Z,20.91
2023-07-18T16:42:38.429Z,20.85
2023-07-18T16:45:05.928Z,20.80
2023-07-18T16:47:33.959Z,20.70
2023-07-18T16:50:01.250Z,20.67
2023-07-18T16:52:31.225Z,20.66
2023-07-18T16:54:58.238Z,20.61
2023-07-18T16:57:25.293Z,20.61
2023-07-18T16:59:52.377Z,20.57
2023-07-18T17:02:19.668Z,20.47
2023-07-18T17:04:46.870Z,20.30
2023-07-18T17:07:14.153Z,20.17
2023-07-18T17:09:41.232Z,20.04
2023-07-18T17:12:11.583Z,20.02
2023-07-18T17:14:40.870Z,20.01
2023-07-18T17:17:08.675Z,20.02
2023-07-18T17:19:42.003Z,20.04
2023-07-18T17:22:19.865Z,19.85
2023-07-18T17:24:46.907Z,19.91
2023-07-18T17:27:13.853Z,19.93
2023-07-18T17:29:40.940Z,19.88
2023-07-18T17:32:08.046Z,19.87
2023-07-18T17:34:36.744Z,19.87
2023-07-18T17:37:04.899Z,19.87
2023-07-18T17:39:33.465Z,19.86
2023-07-18T17:42:01.307Z,19.83
2023-07-18T17:44:28.370Z,19.78
2023-07-18T17:46:55.624Z,19.70
2023-07-18T17:49:22.791Z,19.68
2023-07-18T17:51:49.695Z,19.71
2023-07-18T17:54:16.635Z,19.73
2023-07-18T17:56:43.727Z,19.74
2023-07-18T17:59:10.776Z,19.71
2023-07-18T18:01:38.421Z,19.67
2023-07-18T18:04:07.603Z,19.60
2023-07-18T18:06:34.960Z,19.53
2023-07-18T18:09:01.964Z,19.49
2023-07-18T18:11:29.164Z,19.46
2023-07-18T18:13:58.004Z,19.42
2023-07-18T18:16:25.273Z,19.41
2023-07-18T18:18:52.296Z,19.38
2023-07-18T18:21:19.660Z,19.41
2023-07-18T18:23:46.866Z,19.42
2023-07-18T18:26:13.927Z,19.43
2023-07-18T18:28:40.885Z,19.45
2023-07-18T18:31:07.925Z,19.37
2023-07-18T18:33:35.050Z,19.36
2023-07-18T18:36:02.489Z,19.29
2023-07-18T18:38:29.543Z,19.27
2023-07-18T18:40:58.978Z,19.32
2023-07-18T18:43:26.473Z,19.31
2023-07-18T18:45:53.526Z,19.26
2023-07-18T18:48:20.595Z,19.29
2023-07-18T18:50:49.973Z,19.26
2023-07-18T18:53:18.106Z,19.26
2023-07-18T18:55:45.211Z,19.24
2023-07-18T18:58:14.343Z,19.17
2023-07-18T19:00:41.667Z,19.20
2023-07-18T19:03:09.008Z,19.14
2023-07-18T19:05:36.205Z,19.12
2023-07-18T19:08:03.678Z,19.13
2023-07-18T19:10:31.290Z,19.13
2023-07-18T19:12:58.268Z,19.13
2023-07-18T19:15:25.369Z,19.11
2023-07-18T19:17:54.049Z,19.18
2023-07-18T19:20:21.331Z,19.27
2023-07-18T19:22:48.652Z,19.32
2023-07-18T19:25:16.269Z,19.33
2023-07-18T19:27:43.299Z,19.31
2023-07-18T19:30:12.769Z,19.28
2023-07-18T19:32:44.250Z,19.33
2023-07-18T19:35:11.317Z,19.18
2023-07-18T19:37:38.393Z,19.19
2023-07-18T19:40:05.848Z,19.22
2023-07-18T19:42:32.961Z,19.17
2023-07-18T19:45:00.202Z,19.21
2023-07-18T19:47:27.359Z,18.97
2023-07-18T19:49:54.339Z,18.96
2023-07-18T19:52:22.039Z,18.92
2023-07-18T19:54:49.042Z,18.97
2023-07-18T19:57:16.080Z,18.81
2023-07-18T19:59:42.986Z,18.73
2023-07-18T20:02:09.978Z,18.77
2023-07-18T20:04:37.105Z,18.71
2023-07-18T20:07:04.432Z,18.56
2023-07-18T20:09:31.441Z,18.49
2023-07-18T20:11:58.407Z,18.59
2023-07-18T20:14:25.435Z,18.42
2023-07-18T20:16:52.563Z,18.34
2023-07-18T20:19:19.580Z,18.39
2023-07-18T20:21:46.835Z,18.15
2023-07-18T20:24:13.799Z,18.26
2023-07-18T20:26:43.623Z,18.17
2023-07-18T20:29:10.734Z,18.12
2023-07-18T20:31:38.107Z,18.08
2023-07-18T20:34:05.076Z,18.02
2023-07-18T20:36:31.978Z,17.95
2023-07-18T20:38:58.941Z,17.86
2023-07-18T20:41:26.435Z,17.77
2023-07-18T20:43:53.433Z,17.86
2023-07-18T20:46:22.487Z,17.85
2023-07-18T20:48:49.560Z,17.86
2023-07-18T20:51:16.547Z,17.67
2023-07-18T20:53:43.623Z,17.61
2023-07-18T20:56:10.642Z,17.69
2023-07-18T20:58:37.749Z,17.61
2023-07-18T21:01:04.960Z,17.57
2023-07-18T21:03:34.310Z,17.52
2023-07-18T21:06:01.434Z,17.62
2023-07-18T21:08:28.408Z,17.56
